createdAt,value
2023-03-17T00:02:59.850Z,101158.40
2023-03-17T00:08:12.991Z,101153.40
2023-03-17T00:13:16.154Z,101149.40
2023-03-17T00:18:21.089Z,101150.20
2023-03-17T00:23:25.481Z,101146.00
2023-03-17T00:28:28.399Z,101154.40
2023-03-17T00:33:34.674Z,101154.40
2023-03-17T00:38:37.609Z,101142.60
2023-03-17T00:43:41.823Z,101139.40
2023-03-17T00:48:45.921Z,101149.40
2023-03-17T00:53:49.000Z,101146.80
2023-03-17T00:58:52.317Z,101142.00
2023-03-17T01:03:55.132Z,101139.40
2023-03-17T01:08:58.191Z,101140.80
2023-03-17T01:14:01.055Z,101140.80
2023-03-17T01:19:04.746Z,101145.40
2023-03-17T01:24:08.412Z,101143.40
2023-03-17T01:29:11.387Z,101151.20
2023-03-17T01:34:14.354Z,101154.60
2023-03-17T01:39:17.946Z,101149.80
2023-03-17T01:44:20.785Z,101143.00
2023-03-17T01:49:38.221Z,101145.80
2023-03-17T01:55:12.449Z,101142.00
2023-03-17T02:00:20.097Z,101143.20
2023-03-17T02:05:27.259Z,101147.80
2023-03-17T02:10:30.687Z,101147.40
2023-03-17T02:15:44.256Z,101148.20
2023-03-17T02:20:47.223Z,101150.20
2023-03-17T02:25:53.727Z,101149.80
2023-03-17T02:30:57.954Z,101161.60
2023-03-17T02:36:01.585Z,101157.60
2023-03-17T02:41:06.524Z,101151.40
2023-03-17T02:46:09.647Z,101154.80
2023-03-17T02:51:14.269Z,101150.40
2023-03-17T02:56:17.295Z,101152.40
2023-03-17T03:01:21.347Z,101147.00
2023-03-17T03:06:24.372Z,101147.80
2023-03-17T03:11:27.978Z,101145.20
2023-03-17T03:16:30.956Z,101152.00
2023-03-17T03:21:34.556Z,101144.20
2023-03-17T03:26:37.414Z,101146.60
2023-03-17T03:31:40.754Z,101139.20
2023-03-17T03:36:43.889Z,101139.60
2023-03-17T03:41:46.776Z,101136.20
2023-03-17T03:46:49.943Z,101124.40
2023-03-17T03:51:53.067Z,101117.60
2023-03-17T03:56:55.924Z,101124.20
2023-03-17T04:01:58.867Z,101125.00
2023-03-17T04:07:01.731Z,101121.00
2023-03-17T04:12:05.292Z,101132.20
2023-03-17T04:17:09.101Z,101126.00
2023-03-17T04:22:13.315Z,101125.00
2023-03-17T04:27:17.523Z,101135.00
2023-03-17T04:32:20.902Z,101115.40
2023-03-17T04:37:24.169Z,101123.40
2023-03-17T04:42:27.041Z,101132.00
2023-03-17T04:47:30.028Z,101131.40
2023-03-17T04:52:32.908Z,101142.20
2023-03-17T04:57:37.016Z,101141.00
2023-03-17T05:02:40.058Z,101138.00
2023-03-17T05:07:44.934Z,101140.40
2023-03-17T05:12:47.925Z,101138.00
2023-03-17T05:17:51.284Z,101140.40
2023-03-17T05:22:54.414Z,101138.60
2023-03-17T05:27:58.710Z,101138.40
2023-03-17T05:33:01.638Z,101142.80
2023-03-17T05:38:04.616Z,101137.80
2023-03-17T05:43:07.451Z,101138.20
2023-03-17T05:48:12.351Z,101147.60
2023-03-17T05:53:16.244Z,101154.20
2023-03-17T05:58:19.305Z,101143.40
2023-03-17T06:03:22.434Z,101148.20
2023-03-17T06:08:25.461Z,101145.80
2023-03-17T06:13:28.458Z,101154.20
2023-03-17T06:18:31.488Z,101157.20
2023-03-17T06:23:34.537Z,101180.00
2023-03-17T06:28:37.364Z,101176.40
2023-03-17T06:33:40.227Z,101164.80
2023-03-17T06:38:43.906Z,101170.40
2023-03-17T06:43:47.359Z,101175.00
2023-03-17T06:48:50.207Z,101172.60
2023-03-17T06:53:53.269Z,101167.20
2023-03-17T06:58:56.144Z,101161.60
2023-03-17T07:03:59.590Z,101174.20
2023-03-17T07:09:03.623Z,101174.60
2023-03-17T07:14:06.800Z,101165.20
2023-03-17T07:19:09.968Z,101153.20
2023-03-17T07:24:13.274Z,101158.60
2023-03-17T07:29:16.747Z,101159.60
2023-03-17T07:34:19.989Z,101164.20
2023-03-17T07:39:22.958Z,101159.60
2023-03-17T07:44:26.062Z,101164.60
2023-03-17T07:49:40.733Z,101164.60
2023-03-17T07:54:45.056Z,101168.80
2023-03-17T07:59:48.010Z,101172.60
2023-03-17T08:04:51.085Z,101170.40
2023-03-17T08:09:53.958Z,101170.80
2023-03-17T08:14:57.093Z,101168.20
2023-03-17T08:19:59.958Z,101171.40
2023-03-17T08:25:03.679Z,101167.40
2023-03-17T08:30:07.915Z,101169.40
2023-03-17T08:35:16.693Z,101162.20
2023-03-17T08:40:21.266Z,101165.40
2023-03-17T08:45:24.333Z,101156.80
2023-03-17T08:50:27.560Z,101151.40
2023-03-17T08:55:30.769Z,101147.20
2023-03-17T09:00:34.040Z,101143.60
2023-03-17T09:05:38.554Z,101145.20
2023-03-17T09:10:44.189Z,101139.00
2023-03-17T09:15:47.320Z,101140.60
2023-03-17T09:20:50.145Z,101138.00
2023-03-17T09:25:52.966Z,101150.40
2023-03-17T09:31:06.242Z,101151.60
2023-03-17T09:36:11.130Z,101131.60
2023-03-17T09:41:19.797Z,101109.60
2023-03-17T09:46:55.836Z,101117.80
2023-03-17T09:51:59.443Z,101120.00
2023-03-17T09:57:16.505Z,101114.40
2023-03-17T10:02:27.723Z,101095.60
2023-03-17T10:07:47.143Z,101096.40
2023-03-17T10:13:42.783Z,101107.00
2023-03-17T10:19:32.168Z,101091.60
2023-03-17T10:24:45.962Z,101089.20
2023-03-17T10:29:49.314Z,101087.80
2023-03-17T10:34:52.420Z,101086.40
2023-03-17T10:39:57.647Z,101074.80
2023-03-17T10:45:22.168Z,101062.20
2023-03-17T10:50:34.513Z,101056.80
2023-03-17T10:55:49.924Z,101063.60
2023-03-17T11:01:22.200Z,101043.20
2023-03-17T11:06:42.126Z,101049.40
2023-03-17T11:12:00.275Z,101047.60
2023-03-17T11:17:16.667Z,101045.60
2023-03-17T11:22:40.599Z,101054.20
2023-03-17T11:27:55.890Z,101029.00
2023-03-17T11:33:36.829Z,101021.80
2023-03-17T11:39:05.755Z,101023.00
2023-03-17T11:44:38.585Z,101000.20
2023-03-17T11:49:49.158Z,100991.20
2023-03-17T11:55:11.300Z,100993.20
2023-03-17T12:00:26.525Z,100994.80
2023-03-17T12:05:30.268Z,100985.20
2023-03-17T12:10:55.614Z,100978.00
2023-03-17T12:17:09.294Z,100979.20
2023-03-17T12:22:32.913Z,100960.60
2023-03-17T12:28:11.233Z,100946.60
2023-03-17T12:33:39.181Z,100939.80
2023-03-17T12:39:10.335Z,100929.00
2023-03-17T12:44:57.668Z,100914.20
2023-03-17T12:50:32.692Z,100914.20
2023-03-17T12:55:36.782Z,100917.20
2023-03-17T13:01:07.398Z,100909.60
2023-03-17T13:06:21.315Z,100883.80
2023-03-17T13:11:48.657Z,100892.60
2023-03-17T13:16:52.366Z,100886.00
2023-03-17T13:22:04.387Z,100886.80
2023-03-17T13:27:14.045Z,100890.20
2023-03-17T13:32:17.224Z,100891.40
2023-03-17T13:37:41.990Z,100888.60
2023-03-17T13:43:03.564Z,100889.00
2023-03-17T13:48:33.687Z,100876.20
2023-03-17T13:53:46.311Z,100872.60
2023-03-17T13:59:11.251Z,100873.40
2023-03-17T14:04:30.026Z,100886.00
2023-03-17T14:09:41.539Z,100873.80
2023-03-17T14:14:55.194Z,100873.60
2023-03-17T14:20:13.228Z,100875.40
2023-03-17T14:25:26.734Z,100873.80
2023-03-17T14:30:33.082Z,100870.40
2023-03-17T14:35:42.242Z,100868.20
2023-03-17T14:40:46.107Z,100880.40
2023-03-17T14:46:02.844Z,100870.20
2023-03-17T14:51:31.161Z,100855.80
2023-03-17T14:56:38.746Z,100852.00
2023-03-17T15:01:48.598Z,100854.80
2023-03-17T15:07:06.762Z,100864.20
2023-03-17T15:12:23.613Z,100860.60
2023-03-17T15:17:33.564Z,100855.20
2023-03-17T15:22:36.409Z,100838.80
2023-03-17T15:27:39.237Z,100836.20
2023-03-17T15:32:42.521Z,100844.80
2023-03-17T15:37:45.646Z,100836.00
2023-03-17T15:42:48.644Z,100836.00
2023-03-17T15:47:52.033Z,100821.60
2023-03-17T15:52:56.285Z,100800.40
2023-03-17T15:58:00.407Z,100798.60
2023-03-17T16:03:16.612Z,100798.80
2023-03-17T16:08:19.642Z,100799.80
2023-03-17T16:13:22.838Z,100801.60
2023-03-17T16:18:34.241Z,100805.00
2023-03-17T16:23:37.609Z,100816.20
2023-03-17T16:28:41.166Z,100814.60
2023-03-17T16:33:44.138Z,100808.60
2023-03-17T16:38:47.919Z,100813.60
2023-03-17T16:44:00.002Z,100812.40
2023-03-17T16:49:04.770Z,100810.80
2023-03-17T16:54:08.433Z,100811.80
2023-03-17T16:59:20.575Z,100806.20
2023-03-17T17:04:27.024Z,100799.00
2023-03-17T17:09:29.984Z,100792.00
2023-03-17T17:14:32.927Z,100792.00
2023-03-17T17:19:35.933Z,100791.00
2023-03-17T17:24:38.915Z,100800.20
2023-03-17T17:29:41.815Z,100798.60
2023-03-17T17:34:44.728Z,100800.20
2023-03-17T17:39:48.041Z,100800.00
2023-03-17T17:44:51.298Z,100805.20
2023-03-17T17:49:54.363Z,100810.60
2023-03-17T17:54:57.522Z,100806.60
2023-03-17T18:00:00.420Z,100801.40
2023-03-17T18:05:05.945Z,100800.00
2023-03-17T18:10:24.939Z,100792.80
2023-03-17T18:15:28.162Z,100793.20
2023-03-17T18:20:32.211Z,100799.40
2023-03-17T18:25:35.981Z,100788.00
2023-03-17T18:30:39.093Z,100789.20
2023-03-17T18:35:43.007Z,100788.20
2023-03-17T18:40:46.434Z,100790.40
2023-03-17T18:45:49.525Z,100788.40
2023-03-17T18:50:52.426Z,100779.60
2023-03-17T18:55:57.246Z,100776.60
2023-03-17T19:01:02.096Z,100776.40
2023-03-17T19:06:18.713Z,100783.60
2023-03-17T19:11:22.501Z,100792.60
2023-03-17T19:16:30.873Z,100794.20
2023-03-17T19:21:35.133Z,100790.20
2023-03-17T19:26:38.014Z,100783.20
2023-03-17T19:31:41.687Z,100785.20
2023-03-17T19:36:46.686Z,100784.60
2023-03-17T19:41:53.259Z,100786.60
2023-03-17T19:46:56.616Z,100781.80
2023-03-17T19:51:59.575Z,100793.40
2023-03-17T19:57:02.493Z,100787.60
2023-03-17T20:02:06.683Z,100781.20
2023-03-17T20:07:10.737Z,100778.00
2023-03-17T20:12:14.422Z,100777.20
2023-03-17T20:17:18.049Z,100782.00
2023-03-17T20:22:21.300Z,100774.20
2023-03-17T20:27:24.734Z,100777.80
2023-03-17T20:32:27.927Z,100780.60
2023-03-17T20:37:32.504Z,100773.40
2023-03-17T20:42:36.481Z,100776.00
2023-03-17T20:47:39.322Z,100780.00
2023-03-17T20:52:43.039Z,100775.40
2023-03-17T20:57:47.572Z,100787.00
2023-03-17T21:02:51.659Z,100785.40
2023-03-17T21:07:56.663Z,100778.00
2023-03-17T21:12:59.814Z,100769.40
2023-03-17T21:18:02.900Z,100769.20
2023-03-17T21:23:07.947Z,100763.60
2023-03-17T21:28:11.593Z,100757.60
2023-03-17T21:33:15.418Z,100758.60
2023-03-17T21:38:18.452Z,100756.40
2023-03-17T21:43:23.044Z,100740.80
2023-03-17T21:48:26.221Z,100730.40
2023-03-17T21:53:31.190Z,100724.00
2023-03-17T21:58:34.632Z,100727.60
2023-03-17T22:03:39.611Z,100729.80
2023-03-17T22:08:43.282Z,100727.00
2023-03-17T22:13:47.958Z,100731.80
2023-03-17T22:18:51.795Z,100732.40
2023-03-17T22:23:54.835Z,100731.20
2023-03-17T22:28:58.483Z,100728.40
2023-03-17T22:34:02.394Z,100722.40
2023-03-17T22:39:08.935Z,100723.60
2023-03-17T22:44:12.205Z,100719.00
2023-03-17T22:49:15.197Z,100722.60
2023-03-17T22:54:22.031Z,100721.40
2023-03-17T22:59:24.950Z,100723.20
2023-03-17T23:04:27.917Z,100718.00
2023-03-17T23:09:33.861Z,100717.60
2023-03-17T23:14:37.831Z,100716.80
2023-03-17T23:19:41.221Z,100719.00
2023-03-17T23:24:44.058Z,100718.40
2023-03-17T23:29:47.197Z,100719.40
2023-03-17T23:34:50.091Z,100716.00
2023-03-17T23:39:53.606Z,100715.60
2023-03-17T23:44:56.733Z,100706.60
2023-03-17T23:49:59.751Z,100706.00
2023-03-17T23:55:05.951Z,100695.60
